createdAt,value
2022-07-27T00:01:14.006Z,1.00
2022-07-27T00:03:43.435Z,0.80
2022-07-27T00:06:10.984Z,1.02
2022-07-27T00:08:38.543Z,0.90
2022-07-27T00:11:06.167Z,0.85
2022-07-27T00:13:33.645Z,0.90
2022-07-27T00:16:01.239Z,0.90
2022-07-27T00:18:28.923Z,1.15
2022-07-27T00:20:57.813Z,0.90
2022-07-27T00:23:25.342Z,0.88
2022-07-27T00:25:52.918Z,0.90
2022-07-27T00:28:20.405Z,0.90
2022-07-27T00:30:47.940Z,1.05
2022-07-27T00:33:17.362Z,0.70
2022-07-27T00:35:45.224Z,0.70
2022-07-27T00:38:14.209Z,0.75
2022-07-27T00:40:41.699Z,0.88
2022-07-27T00:43:09.201Z,0.52
2022-07-27T00:45:36.764Z,0.80
2022-07-27T00:48:04.464Z,0.93
2022-07-27T00:50:31.978Z,0.63
2022-07-27T00:52:59.518Z,1.23
2022-07-27T00:55:28.570Z,0.60
2022-07-27T00:57:59.314Z,1.10
2022-07-27T01:00:27.264Z,0.80
2022-07-27T01:02:54.865Z,0.95
2022-07-27T01:05:35.935Z,0.77
2022-07-27T01:08:06.678Z,0.60
2022-07-27T01:10:35.880Z,0.45
2022-07-27T01:13:03.432Z,0.80
2022-07-27T01:15:31.010Z,1.00
2022-07-27T01:18:02.895Z,0.73
2022-07-27T01:20:30.386Z,0.77
2022-07-27T01:22:59.452Z,1.13
2022-07-27T01:25:27.027Z,0.60
2022-07-27T01:27:54.552Z,0.82
2022-07-27T01:30:27.683Z,1.00
2022-07-27T01:33:00.691Z,0.80
2022-07-27T01:35:28.405Z,0.90
2022-07-27T01:37:56.021Z,1.05
2022-07-27T01:40:25.037Z,0.68
2022-07-27T01:42:52.626Z,0.90
2022-07-27T01:45:20.318Z,0.90
2022-07-27T01:47:47.781Z,0.95
2022-07-27T01:50:16.755Z,0.70
2022-07-27T01:52:44.195Z,0.82
2022-07-27T01:55:12.115Z,0.60
2022-07-27T01:57:41.114Z,0.80
2022-07-27T02:00:10.602Z,0.52
2022-07-27T02:02:38.211Z,0.80
2022-07-27T02:05:06.590Z,1.10
2022-07-27T02:07:34.113Z,0.68
2022-07-27T02:10:01.643Z,0.82
2022-07-27T02:12:37.041Z,0.60
2022-07-27T02:15:08.028Z,0.80
2022-07-27T02:17:41.145Z,0.70
2022-07-27T02:20:09.961Z,0.80
2022-07-27T02:22:37.458Z,0.85
2022-07-27T02:25:05.652Z,0.60
2022-07-27T02:27:33.229Z,1.02
2022-07-27T02:30:00.791Z,0.93
2022-07-27T02:32:29.685Z,0.65
2022-07-27T02:34:57.146Z,0.70
2022-07-27T02:37:24.949Z,0.80
2022-07-27T02:39:53.658Z,1.17
2022-07-27T02:42:21.927Z,0.60
2022-07-27T02:44:49.412Z,0.70
2022-07-27T02:47:16.888Z,0.70
2022-07-27T02:49:45.772Z,0.75
2022-07-27T02:52:13.431Z,0.88
2022-07-27T02:54:41.739Z,1.35
2022-07-27T02:57:09.255Z,0.80
2022-07-27T02:59:36.743Z,0.80
2022-07-27T03:02:04.296Z,0.80
2022-07-27T03:04:31.927Z,0.70
2022-07-27T03:07:00.856Z,0.80
2022-07-27T03:09:32.853Z,0.88
2022-07-27T03:12:00.658Z,0.60
2022-07-27T03:14:28.639Z,0.70
2022-07-27T03:16:56.257Z,0.95
2022-07-27T03:19:28.311Z,0.80
2022-07-27T03:21:57.596Z,0.70
2022-07-27T03:24:26.435Z,1.02
2022-07-27T03:26:53.932Z,0.80
2022-07-27T03:29:21.550Z,1.25
2022-07-27T03:31:49.014Z,0.65
2022-07-27T03:34:17.535Z,0.90
2022-07-27T03:36:46.105Z,1.00
2022-07-27T03:39:14.177Z,0.77
2022-07-27T03:41:43.348Z,0.77
2022-07-27T03:44:10.832Z,0.90
2022-07-27T03:46:38.573Z,0.85
2022-07-27T03:49:14.291Z,0.68
2022-07-27T03:51:42.819Z,0.82
2022-07-27T03:54:10.294Z,0.63
2022-07-27T03:56:37.837Z,0.85
2022-07-27T03:59:06.712Z,0.90
2022-07-27T04:01:34.296Z,1.17
2022-07-27T04:04:02.011Z,0.88
2022-07-27T04:06:29.543Z,0.70
2022-07-27T04:09:07.807Z,0.70
2022-07-27T04:11:37.773Z,0.90
2022-07-27T04:14:13.057Z,0.60
2022-07-27T04:16:41.379Z,0.90
2022-07-27T04:19:09.138Z,0.75
2022-07-27T04:21:36.937Z,0.98
2022-07-27T04:24:04.686Z,0.85
2022-07-27T04:26:32.162Z,0.80
2022-07-27T04:28:59.709Z,1.08
2022-07-27T04:31:28.629Z,0.93
2022-07-27T04:33:56.189Z,0.80
2022-07-27T04:36:23.670Z,1.23
2022-07-27T04:38:51.189Z,0.80
2022-07-27T04:41:18.699Z,0.73
2022-07-27T04:43:46.191Z,1.08
2022-07-27T04:46:15.597Z,1.33
2022-07-27T04:48:49.179Z,0.90
2022-07-27T04:51:17.891Z,0.98
2022-07-27T04:53:52.428Z,0.80
2022-07-27T04:56:25.653Z,1.25
2022-07-27T04:58:53.161Z,0.75
2022-07-27T05:01:20.670Z,0.93
2022-07-27T05:03:49.649Z,1.20
2022-07-27T05:06:17.365Z,0.65
2022-07-27T05:08:44.944Z,1.08
2022-07-27T05:11:12.748Z,0.75
2022-07-27T05:13:40.809Z,0.88
2022-07-27T05:16:09.198Z,0.90
2022-07-27T05:18:36.862Z,0.90
2022-07-27T05:21:05.853Z,0.60
2022-07-27T05:23:34.381Z,0.88
2022-07-27T05:26:01.984Z,1.33
2022-07-27T05:28:29.620Z,0.95
2022-07-27T05:30:57.176Z,0.85
2022-07-27T05:33:25.425Z,1.08
2022-07-27T05:35:52.988Z,0.93
2022-07-27T05:38:22.280Z,0.90
2022-07-27T05:40:49.778Z,0.98
2022-07-27T05:43:17.325Z,1.13
2022-07-27T05:45:44.943Z,0.95
2022-07-27T05:48:12.543Z,0.73
2022-07-27T05:50:40.031Z,1.00
2022-07-27T05:53:07.561Z,0.93
2022-07-27T05:55:36.426Z,1.17
2022-07-27T05:58:03.865Z,1.27
2022-07-27T06:00:31.409Z,0.77
2022-07-27T06:02:58.927Z,0.90
2022-07-27T06:05:26.562Z,0.75
2022-07-27T06:07:58.922Z,0.82
2022-07-27T06:10:26.863Z,1.00
2022-07-27T06:12:55.868Z,1.00
2022-07-27T06:15:25.109Z,0.85
2022-07-27T06:17:53.990Z,0.80
2022-07-27T06:20:22.276Z,0.80
2022-07-27T06:22:50.785Z,0.70
2022-07-27T06:25:19.221Z,1.00
2022-07-27T06:27:47.099Z,1.98
2022-07-27T06:30:17.154Z,1.10
2022-07-27T06:32:44.773Z,0.70
2022-07-27T06:35:14.634Z,0.95
2022-07-27T06:37:44.022Z,0.77
2022-07-27T06:40:13.029Z,1.20
2022-07-27T06:42:40.661Z,0.82
2022-07-27T06:45:09.125Z,0.80
2022-07-27T06:47:49.442Z,0.60
2022-07-27T06:50:18.089Z,1.27
2022-07-27T06:52:45.577Z,0.93
2022-07-27T06:55:13.238Z,0.90
2022-07-27T06:57:42.789Z,0.73
2022-07-27T07:00:11.232Z,0.65
2022-07-27T07:02:51.065Z,0.82
2022-07-27T07:05:18.620Z,1.00
2022-07-27T07:07:46.137Z,1.10
2022-07-27T07:10:13.657Z,1.05
2022-07-27T07:12:41.178Z,0.75
2022-07-27T07:15:09.203Z,0.82
2022-07-27T07:17:36.856Z,0.75
2022-07-27T07:20:06.550Z,1.10
2022-07-27T07:22:34.631Z,0.90
2022-07-27T07:25:03.122Z,0.70
2022-07-27T07:27:32.121Z,0.90
2022-07-27T07:30:00.002Z,1.00
2022-07-27T07:32:33.576Z,0.90
2022-07-27T07:35:01.575Z,1.70
2022-07-27T07:37:31.636Z,0.80
2022-07-27T07:40:18.730Z,0.80
2022-07-27T07:42:49.957Z,0.52
2022-07-27T07:45:17.489Z,1.00
2022-07-27T07:47:45.022Z,0.90
2022-07-27T07:50:12.570Z,1.00
2022-07-27T07:52:41.521Z,0.55
2022-07-27T07:55:09.444Z,0.80
2022-07-27T07:57:37.049Z,0.85
2022-07-27T08:00:05.571Z,0.80
2022-07-27T08:02:33.128Z,0.60
2022-07-27T08:05:00.720Z,0.60
2022-07-27T08:07:28.321Z,0.90
2022-07-27T08:09:57.165Z,0.50
2022-07-27T08:12:24.640Z,0.90
2022-07-27T08:14:52.128Z,0.52
2022-07-27T08:17:19.620Z,0.52
2022-07-27T08:19:47.126Z,0.82
2022-07-27T08:22:14.736Z,0.70
2022-07-27T08:24:42.269Z,0.50
2022-07-27T08:27:11.194Z,0.60
2022-07-27T08:29:38.685Z,0.70
2022-07-27T08:32:06.711Z,0.50
2022-07-27T08:34:34.284Z,0.70
2022-07-27T08:37:01.789Z,0.70
2022-07-27T08:40:35.343Z,0.77
2022-07-27T08:42:18.998Z,0.75
2022-07-27T08:44:46.933Z,0.65
2022-07-27T08:47:15.463Z,0.82
2022-07-27T08:49:44.257Z,0.65
2022-07-27T08:52:12.350Z,0.57
2022-07-27T08:54:40.386Z,0.60
2022-07-27T08:57:08.530Z,1.05
2022-07-27T08:59:38.186Z,0.70
2022-07-27T09:02:05.818Z,0.80
2022-07-27T09:04:33.373Z,0.80
2022-07-27T09:07:00.835Z,0.73
2022-07-27T09:09:28.313Z,0.80
2022-07-27T09:12:09.098Z,0.82
2022-07-27T09:14:38.513Z,0.63
2022-07-27T09:20:17.362Z,0.60
2022-07-27T09:22:47.456Z,0.55
2022-07-27T09:25:15.551Z,0.70
2022-07-27T09:27:43.431Z,0.85
2022-07-27T09:30:14.105Z,0.40
2022-07-27T09:32:53.008Z,0.50
2022-07-27T09:35:22.246Z,0.50
2022-07-27T09:37:49.982Z,0.60
2022-07-27T09:40:24.158Z,0.60
2022-07-27T09:43:52.327Z,0.50
2022-07-27T09:46:06.169Z,0.70
2022-07-27T09:48:35.459Z,0.90
2022-07-27T09:51:32.845Z,0.52
2022-07-27T09:53:52.136Z,0.50
2022-07-27T09:56:25.518Z,0.60
2022-07-27T09:58:55.776Z,0.70
2022-07-27T10:01:25.492Z,0.55
2022-07-27T10:03:54.076Z,1.00
2022-07-27T10:06:22.412Z,0.55
2022-07-27T10:08:53.925Z,0.90
2022-07-27T10:11:21.841Z,0.90
2022-07-27T10:13:50.049Z,0.85
2022-07-27T10:16:18.765Z,0.80
2022-07-27T10:18:56.353Z,0.60
2022-07-27T10:21:24.378Z,0.70
2022-07-27T10:23:55.753Z,1.23
2022-07-27T10:26:28.825Z,0.75
2022-07-27T10:28:57.374Z,0.90
2022-07-27T10:31:25.681Z,0.55
2022-07-27T10:33:55.208Z,0.57
2022-07-27T10:36:41.432Z,0.82
2022-07-27T10:39:08.982Z,0.75
2022-07-27T10:41:39.930Z,0.70
2022-07-27T10:44:26.597Z,0.70
2022-07-27T10:46:55.069Z,0.77
2022-07-27T10:49:24.759Z,0.82
2022-07-27T10:51:53.207Z,0.55
2022-07-27T10:54:22.298Z,0.80
2022-07-27T10:56:53.346Z,0.60
2022-07-27T11:00:06.864Z,0.60
2022-07-27T11:02:38.664Z,0.60
2022-07-27T11:05:18.362Z,0.52
2022-07-27T11:08:35.274Z,0.80
2022-07-27T11:10:45.112Z,0.50
2022-07-27T11:13:12.888Z,0.75
2022-07-27T11:15:40.417Z,0.93
2022-07-27T11:18:07.986Z,0.63
2022-07-27T11:20:36.862Z,0.90
2022-07-27T11:26:06.487Z,0.60
2022-07-27T11:28:34.949Z,0.90
2022-07-27T11:31:03.771Z,0.80
2022-07-27T11:33:31.707Z,0.80
2022-07-27T11:36:02.602Z,0.55
2022-07-27T11:38:30.337Z,0.95
2022-07-27T11:41:12.770Z,0.75
2022-07-27T11:43:45.999Z,0.80
2022-07-27T11:46:14.656Z,0.70
2022-07-27T11:49:05.510Z,0.60
2022-07-27T11:51:35.958Z,0.80
2022-07-27T11:54:04.630Z,0.50
2022-07-27T11:56:33.506Z,0.98
2022-07-27T11:59:02.857Z,0.70
2022-07-27T12:01:31.173Z,0.70
2022-07-27T12:04:05.440Z,0.80
2022-07-27T12:06:34.314Z,0.80
2022-07-27T12:09:03.644Z,0.80
2022-07-27T12:11:34.243Z,0.60
2022-07-27T12:14:11.999Z,0.77
2022-07-27T12:16:39.594Z,0.68
2022-07-27T12:19:07.363Z,0.75
2022-07-27T12:21:35.065Z,0.73
2022-07-27T12:24:04.213Z,0.80
2022-07-27T12:26:31.750Z,0.70
2022-07-27T12:29:09.032Z,0.82
2022-07-27T12:31:37.373Z,0.80
2022-07-27T12:34:06.849Z,0.73
2022-07-27T12:36:34.631Z,0.65
2022-07-27T12:39:02.184Z,0.80
2022-07-27T12:41:36.561Z,0.60
2022-07-27T12:44:07.826Z,0.82
2022-07-27T12:46:35.546Z,0.98
2022-07-27T12:49:16.334Z,0.80
2022-07-27T12:51:44.185Z,0.90
2022-07-27T12:54:11.754Z,0.80
2022-07-27T12:56:40.644Z,0.60
2022-07-27T12:59:08.140Z,0.75
2022-07-27T13:01:35.888Z,0.70
2022-07-27T13:04:03.432Z,0.50
2022-07-27T13:06:31.162Z,0.77
2022-07-27T13:08:58.698Z,0.80
2022-07-27T13:11:26.351Z,1.35
2022-07-27T13:13:55.256Z,0.77
2022-07-27T13:16:22.858Z,0.52
2022-07-27T13:18:50.408Z,0.70
2022-07-27T13:21:17.946Z,0.82
2022-07-27T13:23:46.875Z,0.70
2022-07-27T13:26:14.391Z,0.75
2022-07-27T13:28:41.935Z,0.60
2022-07-27T13:31:10.936Z,0.70
2022-07-27T13:33:38.559Z,0.70
2022-07-27T13:36:07.261Z,0.70
2022-07-27T13:38:34.765Z,0.80
2022-07-27T13:41:02.257Z,0.50
2022-07-27T13:43:29.773Z,0.90
2022-07-27T13:45:57.338Z,0.90
2022-07-27T13:48:26.170Z,0.63
2022-07-27T13:50:53.725Z,0.70
2022-07-27T13:53:21.272Z,0.88
2022-07-27T13:55:48.854Z,0.80
2022-07-27T13:58:16.376Z,0.82
2022-07-27T14:00:43.924Z,0.70
2022-07-27T14:03:11.766Z,0.80
2022-07-27T14:05:49.229Z,0.70
2022-07-27T14:08:17.563Z,0.60
2022-07-27T14:10:45.303Z,1.20
2022-07-27T14:13:13.392Z,0.90
2022-07-27T14:15:52.967Z,0.73
2022-07-27T14:18:22.430Z,0.90
2022-07-27T14:20:51.274Z,0.70
2022-07-27T14:23:18.828Z,0.60
2022-07-27T14:25:46.505Z,0.63
2022-07-27T14:28:14.239Z,1.05
2022-07-27T14:30:41.718Z,0.70
2022-07-27T14:33:09.228Z,0.73
2022-07-27T14:35:40.549Z,0.77
2022-07-27T14:38:09.853Z,0.93
2022-07-27T14:40:37.438Z,0.70
2022-07-27T14:43:04.968Z,0.63
2022-07-27T14:45:44.965Z,0.90
2022-07-27T14:48:18.679Z,0.70
2022-07-27T14:53:19.132Z,0.70
2022-07-27T14:55:46.649Z,0.70
2022-07-27T14:58:14.232Z,0.80
2022-07-27T15:00:41.813Z,0.70
2022-07-27T15:03:09.377Z,0.88
2022-07-27T15:05:50.098Z,0.60
2022-07-27T15:08:19.911Z,0.98
2022-07-27T15:10:47.705Z,0.47
2022-07-27T15:13:15.658Z,0.82
2022-07-27T15:15:43.153Z,0.90
2022-07-27T15:18:10.947Z,0.93
2022-07-27T15:20:38.473Z,0.70
2022-07-27T15:23:06.649Z,1.17
2022-07-27T15:25:35.914Z,0.70
2022-07-27T15:28:03.624Z,0.90
2022-07-27T15:30:34.952Z,0.80
2022-07-27T15:33:05.513Z,0.82
2022-07-27T15:35:33.170Z,0.65
2022-07-27T15:38:00.681Z,0.90
2022-07-27T15:40:41.661Z,1.05
2022-07-27T15:43:12.086Z,0.80
2022-07-27T15:45:40.341Z,1.23
2022-07-27T15:48:08.639Z,0.88
2022-07-27T15:50:36.148Z,0.70
2022-07-27T15:53:03.793Z,0.80
2022-07-27T15:55:31.360Z,0.82
2022-07-27T15:57:58.909Z,0.95
2022-07-27T16:00:27.788Z,0.90
2022-07-27T16:02:56.899Z,0.80
2022-07-27T16:05:24.642Z,0.90
2022-07-27T16:07:52.127Z,0.98
2022-07-27T16:10:19.678Z,0.80
2022-07-27T16:12:47.189Z,0.63
2022-07-27T16:15:14.692Z,0.70
2022-07-27T16:17:43.550Z,0.85
2022-07-27T16:20:11.447Z,1.05
2022-07-27T16:22:39.458Z,0.60
2022-07-27T16:25:07.169Z,0.90
2022-07-27T16:27:34.680Z,0.70
2022-07-27T16:30:02.167Z,0.93
2022-07-27T16:32:29.657Z,0.85
2022-07-27T16:34:58.592Z,0.80
2022-07-27T16:37:26.039Z,0.93
2022-07-27T16:39:53.517Z,0.73
2022-07-27T16:42:21.050Z,1.00
2022-07-27T16:44:48.733Z,0.98
2022-07-27T16:47:16.213Z,1.10
2022-07-27T16:49:43.892Z,0.70
2022-07-27T16:52:12.941Z,0.77
2022-07-27T16:54:40.476Z,0.70
2022-07-27T16:57:08.068Z,0.88
2022-07-27T16:59:35.579Z,0.90
2022-07-27T17:02:03.131Z,0.82
2022-07-27T17:04:30.695Z,0.90
2022-07-27T17:06:58.279Z,1.08
2022-07-27T17:09:27.935Z,0.77
2022-07-27T17:11:55.530Z,1.00
2022-07-27T17:14:23.277Z,0.90
2022-07-27T17:16:52.378Z,0.70
2022-07-27T17:19:20.157Z,0.90
2022-07-27T17:21:47.955Z,0.85
2022-07-27T17:24:15.518Z,0.90
2022-07-27T17:26:44.441Z,0.95
2022-07-27T17:29:12.188Z,1.00
2022-07-27T17:31:39.881Z,0.90
2022-07-27T17:34:07.464Z,0.88
2022-07-27T17:36:35.045Z,0.90
2022-07-27T17:39:05.573Z,0.77
2022-07-27T17:41:33.330Z,0.80
2022-07-27T17:44:05.570Z,0.80
2022-07-27T17:46:38.399Z,0.90
2022-07-27T17:49:06.919Z,0.82
2022-07-27T17:51:34.647Z,1.10
2022-07-27T17:54:03.769Z,0.98
2022-07-27T17:56:32.451Z,0.90
2022-07-27T17:59:14.270Z,1.00
2022-07-27T18:01:48.922Z,0.80
2022-07-27T18:04:16.707Z,0.90
2022-07-27T18:06:44.198Z,1.00
2022-07-27T18:09:12.081Z,1.10
2022-07-27T18:11:39.827Z,1.08
2022-07-27T18:14:07.316Z,1.23
2022-07-27T18:16:39.985Z,1.30
2022-07-27T18:19:10.377Z,0.63
2022-07-27T18:21:38.205Z,1.20
2022-07-27T18:24:05.811Z,1.15
2022-07-27T18:26:33.351Z,0.90
2022-07-27T18:29:00.829Z,0.85
2022-07-27T18:31:28.399Z,1.30
2022-07-27T18:33:56.053Z,1.30
2022-07-27T18:36:25.354Z,1.02
2022-07-27T18:38:53.204Z,0.90
2022-07-27T18:41:20.760Z,1.52
2022-07-27T18:43:51.963Z,1.13
2022-07-27T18:46:20.027Z,1.02
2022-07-27T18:48:48.115Z,0.98
2022-07-27T18:51:15.717Z,1.08
2022-07-27T18:53:45.041Z,1.08
2022-07-27T18:56:13.052Z,1.27
2022-07-27T18:58:40.795Z,1.05
2022-07-27T19:01:09.401Z,1.70
2022-07-27T19:03:37.150Z,1.13
2022-07-27T19:06:06.918Z,1.08
2022-07-27T19:08:37.410Z,1.10
2022-07-27T19:11:06.293Z,1.40
2022-07-27T19:13:33.915Z,0.98
2022-07-27T19:16:01.455Z,1.42
2022-07-27T19:18:29.019Z,1.10
2022-07-27T19:20:56.525Z,1.10
2022-07-27T19:23:25.088Z,1.20
2022-07-27T19:25:52.886Z,1.27
2022-07-27T19:28:22.136Z,1.30
2022-07-27T19:30:49.867Z,1.60
2022-07-27T19:33:18.468Z,1.58
2022-07-27T19:35:46.047Z,1.33
2022-07-27T19:38:13.533Z,1.58
2022-07-27T19:40:44.632Z,1.63
2022-07-27T19:43:13.039Z,1.70
2022-07-27T19:45:42.322Z,1.70
2022-07-27T19:48:09.842Z,1.83
2022-07-27T19:50:37.362Z,1.90
2022-07-27T19:53:05.300Z,2.22
2022-07-27T19:55:33.027Z,2.70
2022-07-27T19:58:00.556Z,3.13
2022-07-27T20:00:28.042Z,3.25
2022-07-27T20:02:56.964Z,3.55
2022-07-27T20:05:24.633Z,3.05
2022-07-27T20:07:52.104Z,3.17
2022-07-27T20:10:21.531Z,3.45
2022-07-27T20:12:49.064Z,3.38
2022-07-27T20:15:16.598Z,3.78
2022-07-27T20:17:44.080Z,2.95
2022-07-27T20:20:13.556Z,3.20
2022-07-27T20:22:41.668Z,3.13
2022-07-27T20:25:10.691Z,2.70
2022-07-27T20:27:38.839Z,2.50
2022-07-27T20:30:06.735Z,2.28
2022-07-27T20:32:34.245Z,1.98
2022-07-27T20:35:02.224Z,1.77
2022-07-27T20:37:31.267Z,1.73
2022-07-27T20:39:58.704Z,1.70
2022-07-27T20:42:26.236Z,1.67
2022-07-27T20:44:54.050Z,1.92
2022-07-27T20:47:21.566Z,1.60
2022-07-27T20:49:49.389Z,1.73
2022-07-27T20:52:16.972Z,1.40
2022-07-27T20:54:45.879Z,1.70
2022-07-27T20:57:13.385Z,1.10
2022-07-27T20:59:40.865Z,1.30
2022-07-27T21:02:08.476Z,1.50
2022-07-27T21:04:36.395Z,1.35
2022-07-27T21:07:03.937Z,1.20
2022-07-27T21:09:32.127Z,1.00
2022-07-27T21:12:01.234Z,1.15
2022-07-27T21:14:28.765Z,1.30
2022-07-27T21:16:56.389Z,1.50
2022-07-27T21:19:24.326Z,1.15
2022-07-27T21:21:51.815Z,1.20
2022-07-27T21:24:21.012Z,1.25
2022-07-27T21:26:49.683Z,1.00
2022-07-27T21:29:19.285Z,1.10
2022-07-27T21:31:48.337Z,1.25
2022-07-27T21:34:17.670Z,1.00
2022-07-27T21:36:45.546Z,0.90
2022-07-27T21:39:13.135Z,1.30
2022-07-27T21:41:40.785Z,1.10
2022-07-27T21:44:08.353Z,1.15
2022-07-27T21:46:37.253Z,1.90
2022-07-27T21:49:05.450Z,1.02
2022-07-27T21:51:33.029Z,1.23
2022-07-27T21:54:00.540Z,1.02
2022-07-27T21:56:28.545Z,0.93
2022-07-27T21:58:56.063Z,1.10
2022-07-27T22:01:23.732Z,1.30
2022-07-27T22:03:52.880Z,1.00
2022-07-27T22:06:20.536Z,1.42
2022-07-27T22:08:48.750Z,1.00
2022-07-27T22:11:16.281Z,1.40
2022-07-27T22:13:43.781Z,1.10
2022-07-27T22:16:12.609Z,1.42
2022-07-27T22:18:40.254Z,0.88
2022-07-27T22:21:09.206Z,1.17
2022-07-27T22:23:36.910Z,1.23
2022-07-27T22:26:06.352Z,1.15
2022-07-27T22:28:33.885Z,1.10
2022-07-27T22:31:21.818Z,0.98
2022-07-27T22:33:49.588Z,1.02
2022-07-27T22:36:18.409Z,1.58
2022-07-27T22:38:46.295Z,1.17
2022-07-27T22:41:13.867Z,1.00
2022-07-27T22:43:41.381Z,1.33
2022-07-27T22:46:10.039Z,1.25
2022-07-27T22:48:37.740Z,1.30
2022-07-27T22:51:05.261Z,1.25
2022-07-27T22:53:34.308Z,1.02
2022-07-27T22:56:01.835Z,1.13
2022-07-27T22:58:29.305Z,1.10
2022-07-27T23:00:59.617Z,1.05
2022-07-27T23:05:54.932Z,1.15
2022-07-27T23:08:22.482Z,1.33
2022-07-27T23:10:51.376Z,1.30
2022-07-27T23:13:19.642Z,1.13
2022-07-27T23:15:48.002Z,1.15
2022-07-27T23:18:16.596Z,1.13
2022-07-27T23:20:44.698Z,1.40
2022-07-27T23:23:16.461Z,1.20
2022-07-27T23:25:44.446Z,1.17
2022-07-27T23:28:13.532Z,1.30
2022-07-27T23:30:41.043Z,1.23
2022-07-27T23:33:08.691Z,1.15
2022-07-27T23:35:36.222Z,1.30
2022-07-27T23:38:03.824Z,1.25
2022-07-27T23:40:31.326Z,1.25
2022-07-27T23:42:58.830Z,1.27
2022-07-27T23:45:27.703Z,1.25
2022-07-27T23:47:55.336Z,1.25
2022-07-27T23:50:22.943Z,1.20
2022-07-27T23:52:50.585Z,1.50
2022-07-27T23:55:18.223Z,1.55
2022-07-27T23:57:45.720Z,1.63
